Time;durP1;ratioP1;P1;durP2;ratioP2;P2;SDS_P1;SDS_P2;PMS_P1;PMS_P2;Temp;Humidity;BMP_temperature;BMP_pressure;BME280_temperature;BME280_humidity;BME280_pressure;Samples;Min_cycle;Max_cycle;Signal;HPM_P1;HPM_P2
2022/09/01 00:00:49;;;;;;;1999.90;999.90;;;20.30;99.90;;;;;;5185658;28;20041;-72
2022/09/01 00:03:24;;;;;;;1999.90;999.90;;;20.20;99.90;;;;;;5185467;28;20080;-72
2022/09/01 00:05:55;;;;;;;1999.90;999.90;;;20.00;99.90;;;;;;5184272;28;20512;-72
2022/09/01 00:08:26;;;;;;;1999.90;999.90;;;20.30;99.90;;;;;;5168650;28;20505;-72
2022/09/01 00:10:57;;;;;;;1999.90;999.90;;;20.10;99.90;;;;;;5179958;28;20050;-73
2022/09/01 00:13:32;;;;;;;1999.90;999.90;;;20.10;99.90;;;;;;5185354;28;20025;-72
2022/09/01 00:16:03;;;;;;;1999.90;999.90;;;20.00;99.90;;;;;;5185015;28;20018;-73
2022/09/01 00:18:34;;;;;;;1999.90;999.90;;;20.10;99.90;;;;;;5185139;28;20044;-73
2022/09/01 00:21:05;;;;;;;1999.90;999.90;;;20.00;99.90;;;;;;5185374;28;20010;-73
2022/09/01 00:23:37;;;;;;;1999.90;999.90;;;20.00;99.90;;;;;;5184961;28;20041;-72
2022/09/01 00:26:08;;;;;;;1999.90;999.90;;;20.10;99.90;;;;;;5185260;28;20049;-73
2022/09/01 00:28:39;;;;;;;1999.90;999.90;;;20.20;99.90;;;;;;5183666;28;20053;-73
2022/09/01 00:31:10;;;;;;;1999.90;999.90;;;20.00;99.90;;;;;;5184991;28;20409;-74
2022/09/01 00:33:42;;;;;;;1999.90;999.90;;;20.10;99.90;;;;;;5185236;28;20374;-72
2022/09/01 00:36:14;;;;;;;1999.90;999.90;;;20.10;99.90;;;;;;5187273;28;20040;-72
2022/09/01 00:38:45;;;;;;;1999.90;999.90;;;20.10;99.90;;;;;;5188979;28;20046;-72
2022/09/01 00:41:18;;;;;;;1999.90;999.90;;;20.10;99.90;;;;;;5189206;28;20022;-73
2022/09/01 00:43:58;;;;;;;1999.90;999.90;;;20.20;99.90;;;;;;5189509;28;20026;-72
2022/09/01 00:46:31;;;;;;;;;;;20.00;99.90;;;;;;5189971;28;20029;-73
2022/09/01 00:49:04;;;;;;;1999.90;999.90;;;19.90;99.90;;;;;;5189194;28;19976;-72
2022/09/01 00:51:38;;;;;;;1999.90;999.90;;;19.90;99.90;;;;;;5189197;28;20498;-74
2022/09/01 00:54:13;;;;;;;1999.90;999.90;;;19.90;99.90;;;;;;5172394;28;20049;-73
2022/09/01 00:56:45;;;;;;;1999.90;999.90;;;20.00;99.90;;;;;;5183457;28;20089;-73
2022/09/01 00:59:18;;;;;;;1999.90;999.90;;;20.10;99.90;;;;;;5187495;28;20026;-72
2022/09/01 01:01:49;;;;;;;1999.90;999.90;;;20.00;99.90;;;;;;5188800;28;20545;-73
2022/09/01 01:04:20;;;;;;;1999.90;999.90;;;20.00;99.90;;;;;;5188641;28;20125;-72
2022/09/01 01:07:00;;;;;;;1999.90;999.90;;;19.80;99.90;;;;;;5189074;28;20057;-72
2022/09/01 01:09:38;;;;;;;1999.90;999.90;;;20.00;99.90;;;;;;5188103;28;20049;-72
2022/09/01 01:12:12;;;;;;;1999.90;999.90;;;20.00;99.90;;;;;;5188846;28;20378;-73
2022/09/01 01:14:51;;;;;;;1999.90;999.90;;;20.00;99.90;;;;;;5188777;28;20086;-73
2022/09/01 01:17:23;;;;;;;1999.90;999.90;;;20.20;99.90;;;;;;5188617;28;20478;-72
2022/09/01 01:23:18;;;;;;;1999.90;999.90;;;20.10;99.90;;;;;;5188388;28;20032;-73
2022/09/01 01:25:56;;;;;;;1999.90;999.90;;;19.90;99.90;;;;;;5188157;28;20045;-74
2022/09/01 01:28:30;;;;;;;1999.90;999.90;;;20.10;99.90;;;;;;5187447;28;20065;-73
2022/09/01 01:31:11;;;;;;;1999.90;999.90;;;20.10;99.90;;;;;;5188213;28;20022;-73
2022/09/01 01:33:45;;;;;;;1999.90;999.90;;;20.20;99.90;;;;;;5187670;28;20022;-73
2022/09/01 01:36:35;;;;;;;1999.90;999.90;;;20.30;99.90;;;;;;5188143;28;20429;-73
2022/09/01 01:39:10;;;;;;;1999.90;999.90;;;20.40;99.90;;;;;;5187847;28;20505;-73
2022/09/01 01:41:44;;;;;;;1999.90;999.90;;;20.40;99.90;;;;;;5186956;28;20049;-73
2022/09/01 01:44:18;;;;;;;1999.90;999.90;;;20.40;99.90;;;;;;5186835;28;20425;-73
2022/09/01 01:46:53;;;;;;;1999.90;999.90;;;20.40;99.90;;;;;;5187875;28;20062;-72
2022/09/01 01:49:29;;;;;;;1999.90;999.90;;;20.20;99.90;;;;;;5187879;28;20030;-73
2022/09/01 01:52:01;;;;;;;1999.90;999.90;;;20.10;99.90;;;;;;5188061;28;20018;-73
2022/09/01 01:54:32;;;;;;;1999.90;999.90;;;20.40;99.90;;;;;;5186762;28;20026;-72
2022/09/01 01:57:03;;;;;;;1999.90;999.90;;;20.40;99.90;;;;;;5187583;28;20112;-73
2022/09/01 01:59:34;;;;;;;1999.90;999.90;;;20.40;99.90;;;;;;5187668;28;20088;-73
2022/09/01 02:02:08;;;;;;;1999.90;999.90;;;20.30;99.90;;;;;;5188356;28;20025;-73
2022/09/01 02:04:40;;;;;;;1999.90;999.90;;;20.40;99.90;;;;;;5186482;28;20133;-73
2022/09/01 02:07:12;;;;;;;1999.90;999.90;;;20.00;99.90;;;;;;5186325;28;20018;-73
2022/09/01 02:09:46;;;;;;;1999.90;999.90;;;20.10;99.90;;;;;;5187229;28;20129;-73
2022/09/01 02:12:18;;;;;;;1999.90;999.90;;;20.10;99.90;;;;;;5187879;28;20022;-72
2022/09/01 02:14:49;;;;;;;1999.90;999.90;;;20.30;99.90;;;;;;5187482;28;20036;-72
2022/09/01 02:17:21;;;;;;;1999.90;999.90;;;20.20;99.90;;;;;;5187619;28;20026;-73
2022/09/01 02:19:55;;;;;;;1999.90;999.90;;;20.10;99.90;;;;;;5187246;28;20050;-73
2022/09/01 02:22:27;;;;;;;1999.90;999.90;;;20.10;99.90;;;;;;5187432;28;20029;-72
2022/09/01 02:24:59;;;;;;;1999.90;999.90;;;20.20;99.90;;;;;;5187234;28;20030;-72
2022/09/01 02:27:34;;;;;;;1999.90;999.90;;;20.20;99.90;;;;;;5185950;28;20025;-73
2022/09/01 02:30:09;;;;;;;1999.90;999.90;;;20.20;99.90;;;;;;5187081;28;20054;-73
2022/09/01 02:32:40;;;;;;;1999.90;999.90;;;20.20;99.90;;;;;;5187335;28;20101;-73
2022/09/01 02:35:12;;;;;;;1999.90;999.90;;;20.20;99.90;;;;;;5186962;28;20061;-73
2022/09/01 02:37:48;;;;;;;1999.90;999.90;;;20.20;99.90;;;;;;5186936;28;20014;-73
2022/09/01 02:40:19;;;;;;;1999.90;999.90;;;20.30;99.90;;;;;;5186888;28;20030;-73
2022/09/01 02:42:51;;;;;;;1999.90;999.90;;;20.50;99.90;;;;;;5186890;28;20108;-72
2022/09/01 02:45:23;;;;;;;1999.90;999.90;;;20.20;99.90;;;;;;5186814;28;20055;-73
2022/09/01 02:47:56;;;;;;;1999.90;999.90;;;20.30;99.90;;;;;;5186731;28;20054;-73
2022/09/01 02:50:28;;;;;;;1999.90;999.90;;;20.70;99.90;;;;;;5186408;28;20022;-72
2022/09/01 02:52:59;;;;;;;1999.90;999.90;;;20.40;99.90;;;;;;5166982;28;20080;-71
2022/09/01 02:55:30;;;;;;;1999.90;999.90;;;20.40;99.90;;;;;;5185193;28;20029;-72
2022/09/01 02:58:02;;;;;;;1999.90;999.90;;;20.30;99.90;;;;;;5184588;28;20041;-72
2022/09/01 03:00:38;;;;;;;1999.90;999.90;;;20.20;99.90;;;;;;5185253;28;20104;-72
2022/09/01 03:03:11;;;;;;;1999.90;999.90;;;20.40;99.90;;;;;;5186465;28;20061;-73
2022/09/01 03:05:42;;;;;;;1999.90;999.90;;;20.50;99.90;;;;;;5186636;28;20037;-72
2022/09/01 03:08:15;;;;;;;1999.90;999.90;;;20.60;99.90;;;;;;5185024;28;20787;-72
2022/09/01 03:10:46;;;;;;;1999.90;999.90;;;20.80;99.90;;;;;;5186453;28;20041;-72
2022/09/01 03:13:22;;;;;;;1999.90;999.90;;;20.60;99.90;;;;;;5185397;28;20032;-72
2022/09/01 03:15:53;;;;;;;1999.90;999.90;;;20.80;99.90;;;;;;5186567;28;20034;-72
2022/09/01 03:18:24;;;;;;;1999.90;999.90;;;20.90;99.90;;;;;;5185214;28;20084;-73
2022/09/01 03:20:56;;;;;;;1999.90;999.90;;;20.90;99.90;;;;;;5186385;28;20450;-73
2022/09/01 03:23:30;;;;;;;1999.90;999.90;;;21.10;99.90;;;;;;5186085;28;20121;-73
2022/09/01 03:26:01;;;;;;;1999.90;999.90;;;21.00;99.90;;;;;;5186038;28;20069;-73
2022/09/01 03:28:32;;;;;;;1999.90;999.90;;;21.20;99.90;;;;;;5186215;28;20022;-72
2022/09/01 03:31:04;;;;;;;1999.90;999.90;;;21.20;99.90;;;;;;5186025;28;20344;-72
2022/09/01 03:33:35;;;;;;;1999.90;999.90;;;21.40;99.90;;;;;;5185920;28;20018;-72
2022/09/01 03:36:06;;;;;;;1999.90;999.90;;;21.30;99.90;;;;;;5186191;28;20028;-72
2022/09/01 03:38:37;;;;;;;1999.90;999.90;;;21.40;99.90;;;;;;5185752;28;20033;-73
2022/09/01 03:41:08;;;;;;;1999.90;999.90;;;21.40;99.90;;;;;;5182463;28;20038;-73
2022/09/01 03:43:39;;;;;;;1999.90;999.90;;;21.50;99.90;;;;;;5175854;28;20108;-73
2022/09/01 03:46:11;;;;;;;1999.90;999.90;;;21.40;99.90;;;;;;5180109;28;20423;-73
2022/09/01 03:48:42;;;;;;;1999.90;999.90;;;21.40;99.90;;;;;;5165908;28;20106;-73
2022/09/01 03:51:13;;;;;;;1999.90;999.90;;;21.50;99.90;;;;;;5185770;28;20109;-72
2022/09/01 03:53:44;;;;;;;1999.90;999.90;;;21.60;99.90;;;;;;5185523;28;20014;-73
2022/09/01 03:56:17;;;;;;;1999.90;999.90;;;21.50;99.90;;;;;;5185514;28;20078;-72
2022/09/01 03:58:48;;;;;;;1999.90;999.90;;;21.50;99.90;;;;;;5185615;28;20022;-72
2022/09/01 04:01:19;;;;;;;1999.90;999.90;;;21.60;99.90;;;;;;5178313;28;20034;-72
2022/09/01 04:03:51;;;;;;;1999.90;999.90;;;21.60;99.90;;;;;;5166674;28;20025;-72
2022/09/01 04:06:22;;;;;;;1999.90;999.90;;;21.60;99.90;;;;;;5185577;28;20034;-72
2022/09/01 04:09:01;;;;;;;1999.90;999.90;;;21.60;99.90;;;;;;5184863;28;20716;-72
2022/09/01 04:11:32;;;;;;;1999.90;999.90;;;21.60;99.90;;;;;;5185308;28;20050;-72
2022/09/01 04:14:03;;;;;;;1999.90;999.90;;;21.60;99.90;;;;;;5185396;28;20440;-72
2022/09/01 04:19:25;;;;;;;1999.90;999.90;;;21.50;99.90;;;;;;5185495;28;20018;-72
2022/09/01 04:21:58;;;;;;;1999.90;999.90;;;21.50;99.90;;;;;;5184151;28;20029;-73
2022/09/01 04:24:31;;;;;;;1999.90;999.90;;;21.50;99.90;;;;;;5185686;28;20029;-72
2022/09/01 04:27:03;;;;;;;1999.90;999.90;;;21.60;99.90;;;;;;5185506;28;20041;-72
2022/09/01 04:29:34;;;;;;;1999.90;999.90;;;21.70;99.90;;;;;;5183804;28;20010;-73
2022/09/01 04:32:11;;;;;;;1999.90;999.90;;;21.70;99.90;;;;;;5185044;28;20088;-72
2022/09/01 04:34:42;;;;;;;1999.90;999.90;;;21.80;99.90;;;;;;5183984;28;20022;-72
2022/09/01 04:37:19;;;;;;;1999.90;999.90;;;21.70;99.90;;;;;;5185127;28;20488;-72
2022/09/01 04:39:54;;;;;;;1999.90;999.90;;;21.70;99.90;;;;;;5184997;28;20113;-72
2022/09/01 04:42:27;;;;;;;1999.90;999.90;;;21.70;99.90;;;;;;5185156;28;20060;-73
2022/09/01 04:45:00;;;;;;;1999.90;999.90;;;21.70;99.90;;;;;;5184957;28;20046;-72
2022/09/01 04:47:30;;;;;;;1999.90;999.90;;;21.70;99.90;;;;;;5175868;28;20129;-72
2022/09/01 04:50:11;;;;;;;1999.90;999.90;;;21.70;99.90;;;;;;5167026;28;20041;-72
2022/09/01 04:52:44;;;;;;;1999.90;999.90;;;21.70;99.90;;;;;;5185414;28;20575;-72
2022/09/01 04:55:17;;;;;;;1999.90;999.90;;;21.80;99.90;;;;;;5185185;28;20021;-72
2022/09/01 04:57:49;;;;;;;1999.90;999.90;;;21.80;99.90;;;;;;5184823;28;20041;-72
2022/09/01 05:00:21;;;;;;;1999.90;999.90;;;22.00;99.90;;;;;;5184616;28;20022;-73
2022/09/01 05:03:03;;;;;;;1999.90;999.90;;;22.10;99.90;;;;;;5171721;28;20033;-72
2022/09/01 05:05:41;;;;;;;1999.90;999.90;;;22.20;99.90;;;;;;5184678;28;20034;-72
2022/09/01 05:08:16;;;;;;;1999.90;999.90;;;22.40;99.90;;;;;;5184687;28;20121;-73
2022/09/01 05:10:51;;;;;;;1999.90;999.90;;;22.40;99.90;;;;;;5173383;28;20073;-73
2022/09/01 05:13:23;;;;;;;1999.90;999.90;;;22.50;99.90;;;;;;5184128;28;20050;-72
2022/09/01 05:16:04;;;;;;;1999.90;999.90;;;22.50;99.90;;;;;;5184514;28;20021;-73
2022/09/01 05:18:35;;;;;;;1999.90;999.90;;;22.60;99.90;;;;;;5184916;28;20032;-74
2022/09/01 05:21:10;;;;;;;1999.90;999.90;;;22.50;99.90;;;;;;5183975;28;20332;-75
2022/09/01 05:23:43;;;;;;;1999.90;999.90;;;22.60;99.90;;;;;;5186287;28;20033;-74
2022/09/01 05:26:43;;;;;;;1999.90;999.90;;;22.70;99.90;;;;;;5187439;28;20038;-75
2022/09/01 05:29:16;;;;;;;1999.90;999.90;;;22.70;99.90;;;;;;5186756;28;20510;-75
2022/09/01 05:31:48;;;;;;;1999.90;999.90;;;22.70;99.90;;;;;;5188426;28;20022;-75
2022/09/01 05:34:25;;;;;;;1999.90;999.90;;;22.70;99.90;;;;;;5187943;28;20537;-75
2022/09/01 05:36:58;;;;;;;1999.90;999.90;;;22.80;99.90;;;;;;5188255;28;20060;-75
2022/09/01 05:39:29;;;;;;;1999.90;999.90;;;22.80;99.90;;;;;;5188136;28;20034;-74
2022/09/01 05:42:00;;;;;;;1999.90;999.90;;;23.00;99.90;;;;;;5188622;28;20022;-74
2022/09/01 05:44:31;;;;;;;1999.90;999.90;;;23.00;99.90;;;;;;5188299;28;20068;-73
2022/09/01 05:47:04;;;;;;;1999.90;999.90;;;23.00;99.90;;;;;;5188324;28;20405;-76
2022/09/01 05:49:34;;;;;;;1999.90;999.90;;;23.00;99.90;;;;;;5188253;28;20052;-75
2022/09/01 05:52:08;;;;;;;1999.90;999.90;;;23.30;99.90;;;;;;5187038;28;20502;-75
2022/09/01 05:54:40;;;;;;;1999.90;999.90;;;23.40;99.90;;;;;;5188213;28;20185;-74
2022/09/01 05:57:11;;;;;;;1999.90;999.90;;;23.70;99.90;;;;;;5188104;28;20045;-74
2022/09/01 05:59:42;;;;;;;1999.90;999.90;;;23.90;99.90;;;;;;5187960;28;20427;-75
2022/09/01 06:02:13;;;;;;;1999.90;999.90;;;24.00;99.90;;;;;;5186784;28;20018;-71
2022/09/01 06:04:45;;;;;;;1999.90;999.90;;;23.90;99.90;;;;;;5187440;28;20045;-74
2022/09/01 06:07:17;;;;;;;1999.90;999.90;;;23.80;99.90;;;;;;5187584;28;20071;-75
2022/09/01 06:09:48;;;;;;;1999.90;999.90;;;23.90;99.90;;;;;;5186879;28;20050;-75
2022/09/01 06:12:22;;;;;;;1999.90;999.90;;;24.00;99.90;;;;;;5187125;28;20034;-75
2022/09/01 06:14:54;;;;;;;1999.90;999.90;;;23.90;99.90;;;;;;5180868;28;20168;-73
2022/09/01 06:17:28;;;;;;;1999.90;999.90;;;23.80;99.90;;;;;;5167146;28;20030;-76
2022/09/01 06:19:59;;;;;;;1999.90;999.90;;;24.00;99.90;;;;;;5186609;28;20520;-75
2022/09/01 06:22:30;;;;;;;1999.90;999.90;;;24.00;99.90;;;;;;5187127;28;20034;-73
2022/09/01 06:25:05;;;;;;;1999.90;999.90;;;24.00;99.90;;;;;;5185204;28;20477;-76
2022/09/01 06:27:41;;;;;;;1999.90;999.90;;;24.10;99.90;;;;;;5184934;28;20030;-76
2022/09/01 06:30:15;;;;;;;1999.90;999.90;;;24.20;99.90;;;;;;5187480;28;20575;-75
2022/09/01 06:32:48;;;;;;;1999.90;999.90;;;24.30;99.90;;;;;;5184990;28;20080;-73
2022/09/01 06:35:21;;;;;;;1999.90;999.90;;;24.20;99.90;;;;;;5187106;28;20041;-74
2022/09/01 06:37:51;;;;;;;1999.90;999.90;;;24.20;99.90;;;;;;5187056;28;20374;-73
2022/09/01 06:40:24;;;;;;;1999.90;999.90;;;24.30;99.90;;;;;;5187082;28;20034;-76
2022/09/01 06:42:55;;;;;;;1999.90;999.90;;;24.40;99.90;;;;;;5187204;28;20041;-76
2022/09/01 06:45:26;;;;;;;1999.90;999.90;;;24.20;99.90;;;;;;5187122;28;20073;-75
2022/09/01 06:47:56;;;;;;;1999.90;999.90;;;24.30;99.90;;;;;;5187091;28;20521;-74
2022/09/01 06:50:27;;;;;;;1999.90;999.90;;;24.40;99.90;;;;;;5186999;28;20071;-75
2022/09/01 06:53:15;;;;;;;1999.90;999.90;;;24.30;99.90;;;;;;5186817;28;20041;-74
2022/09/01 06:55:48;;;;;;;1999.90;999.90;;;24.10;99.90;;;;;;5187325;28;20025;-73
2022/09/01 06:58:19;;;;;;;1999.90;999.90;;;24.10;99.90;;;;;;5186925;28;20034;-75
2022/09/01 07:00:51;;;;;;;1999.90;999.90;;;24.10;99.90;;;;;;5186715;28;20021;-76
2022/09/01 07:03:22;;;;;;;1999.90;999.90;;;24.10;99.90;;;;;;5186617;28;20026;-77
2022/09/01 07:05:54;;;;;;;1999.90;999.90;;;24.00;99.90;;;;;;5186607;28;20026;-77
2022/09/01 07:08:25;;;;;;;1999.90;999.90;;;23.90;99.90;;;;;;5185184;28;20251;-78
2022/09/01 07:10:56;;;;;;;1999.90;999.90;;;23.90;99.90;;;;;;5186238;28;20054;-77
2022/09/01 07:13:27;;;;;;;1999.90;999.90;;;24.00;99.90;;;;;;5168169;28;20019;-73
2022/09/01 07:15:58;;;;;;;1999.90;999.90;;;24.00;99.90;;;;;;5166184;28;20107;-76
2022/09/01 07:18:30;;;;;;;1999.90;999.90;;;23.90;99.90;;;;;;5166435;28;20030;-76
2022/09/01 07:21:04;;;;;;;1999.90;999.90;;;23.90;99.90;;;;;;5166279;28;20018;-73
2022/09/01 07:23:37;;;;;;;1999.90;999.90;;;23.80;99.90;;;;;;5164809;28;20089;-73
2022/09/01 07:26:09;;;;;;;1999.90;999.90;;;23.90;99.90;;;;;;5165802;28;20034;-76
2022/09/01 07:28:40;;;;;;;1999.90;999.90;;;23.80;99.90;;;;;;5165865;28;20105;-74
2022/09/01 07:31:19;;;;;;;1999.90;999.90;;;23.80;99.90;;;;;;5165951;28;20161;-76
2022/09/01 07:33:51;;;;;;;1999.90;999.90;;;23.70;99.90;;;;;;5165849;28;20076;-75
2022/09/01 07:36:22;;;;;;;1999.90;999.90;;;23.70;99.90;;;;;;5165759;28;20353;-76
2022/09/01 07:38:53;;;;;;;1999.90;999.90;;;23.70;99.90;;;;;;5165723;28;20165;-78
2022/09/01 07:41:25;;;;;;;1999.90;999.90;;;23.80;99.90;;;;;;5165784;28;20056;-76
2022/09/01 07:43:56;;;;;;;1999.90;999.90;;;23.80;99.90;;;;;;5185488;28;20080;-77
2022/09/01 07:46:31;;;;;;;1999.90;999.90;;;23.90;99.90;;;;;;5185717;28;20037;-75
2022/09/01 07:49:02;;;;;;;1999.90;999.90;;;24.00;99.90;;;;;;5185742;28;20014;-77
2022/09/01 07:51:33;;;;;;;1999.90;999.90;;;24.10;99.90;;;;;;5185604;28;20566;-75
2022/09/01 07:54:09;;;;;;;1999.90;999.90;;;24.20;99.90;;;;;;5184447;28;20478;-76
2022/09/01 07:56:40;;;;;;;1999.90;999.90;;;24.30;99.90;;;;;;5185358;28;20022;-76
2022/09/01 07:59:13;;;;;;;1999.90;999.90;;;24.50;99.90;;;;;;5185364;28;20375;-77
2022/09/01 08:01:46;;;;;;;1999.90;999.90;;;25.40;99.90;;;;;;5182383;28;20060;-77
2022/09/01 08:04:21;;;;;;;1999.90;999.90;;;25.80;99.90;;;;;;5181812;28;20561;-73
2022/09/01 08:06:53;;;;;;;1999.90;999.90;;;25.70;99.90;;;;;;5185384;28;20473;-72
2022/09/01 08:09:24;;;;;;;1999.90;999.90;;;25.80;99.90;;;;;;5184976;28;20099;-77
2022/09/01 08:11:55;;;;;;;1999.90;999.90;;;25.60;99.90;;;;;;5181112;28;20018;-77
2022/09/01 08:14:26;;;;;;;1999.90;999.90;;;25.50;99.90;;;;;;5165266;28;20039;-72
2022/09/01 08:16:56;;;;;;;1999.90;999.90;;;25.40;99.90;;;;;;5165255;28;20018;-73
2022/09/01 08:19:27;;;;;;;1999.90;999.90;;;25.30;99.90;;;;;;5164941;28;20026;-73
2022/09/01 08:21:58;;;;;;;1999.90;999.90;;;25.40;99.90;;;;;;5165345;28;20808;-73
2022/09/01 08:24:29;;;;;;;1999.90;999.90;;;25.50;99.90;;;;;;5164934;28;20084;-77
2022/09/01 08:27:00;;;;;;;1999.90;999.90;;;25.50;99.90;;;;;;5165241;28;20041;-74
2022/09/01 08:29:31;;;;;;;1999.90;999.90;;;25.70;99.90;;;;;;5163663;28;20042;-73
2022/09/01 08:32:02;;;;;;;1999.90;999.90;;;25.90;99.90;;;;;;5165069;28;20379;-73
2022/09/01 08:34:36;;;;;;;1999.90;999.90;;;26.30;99.90;;;;;;5165285;28;20389;-75
2022/09/01 08:37:07;;;;;;;1999.90;999.90;;;25.90;99.90;;;;;;5163723;28;20029;-75
2022/09/01 08:39:45;;;;;;;1999.90;999.90;;;25.60;99.90;;;;;;5164835;28;20034;-76
2022/09/01 08:42:40;;;;;;;1999.90;999.90;;;25.40;99.90;;;;;;5178204;28;20120;-76
2022/09/01 08:45:44;;;;;;;1999.90;999.90;;;25.40;99.90;;;;;;5185258;28;20042;-75
2022/09/01 08:48:33;;;;;;;1999.90;999.90;;;25.30;99.90;;;;;;5182634;28;20037;-76
2022/09/01 08:51:28;;;;;;;1999.90;999.90;;;25.30;99.90;;;;;;5185199;28;20037;-76
2022/09/01 08:54:38;;;;;;;1999.90;999.90;;;25.20;99.90;;;;;;5183979;28;20018;-75
2022/09/01 08:57:30;;;;;;;1999.90;999.90;;;25.20;99.90;;;;;;5186680;28;20389;-74
2022/09/01 09:00:01;;;;;;;1999.90;999.90;;;25.20;99.90;;;;;;5188947;28;20362;-76
2022/09/01 09:02:46;;;;;;;1999.90;999.90;;;25.40;99.90;;;;;;5189102;28;20034;-75
2022/09/01 09:06:02;;;;;;;1999.90;999.90;;;25.40;99.90;;;;;;5187531;28;20038;-76
2022/09/01 09:08:52;;;;;;;1999.90;999.90;;;25.50;99.90;;;;;;5156710;28;20042;-74
2022/09/01 09:12:00;;;;;;;1999.90;999.90;;;25.60;99.90;;;;;;5188744;28;20553;-75
2022/09/01 09:14:46;;;;;;;1999.90;999.90;;;25.70;99.90;;;;;;5168153;28;20018;-74
2022/09/01 09:17:22;;;;;;;1999.90;999.90;;;25.90;99.90;;;;;;5168154;28;20137;-74
2022/09/01 09:19:53;;;;;;;1999.90;999.90;;;26.10;99.90;;;;;;5173508;28;20032;-73
2022/09/01 09:22:24;;;;;;;1999.90;999.90;;;26.30;99.90;;;;;;5167020;28;20049;-75
2022/09/01 09:25:13;;;;;;;1999.90;999.90;;;26.90;99.90;;;;;;5168181;28;20042;-76
2022/09/01 09:27:47;;;;;;;1999.90;999.90;;;27.20;99.90;;;;;;5176028;28;20056;-75
2022/09/01 09:30:25;;;;;;;1999.90;999.90;;;27.20;99.90;;;;;;5181433;28;20493;-74
2022/09/01 09:33:06;;;;;;;1999.90;999.90;;;26.80;99.90;;;;;;5187457;28;20022;-76
2022/09/01 09:35:40;;;;;;;1999.90;999.90;;;27.20;99.90;;;;;;5186428;28;20494;-74
2022/09/01 09:38:18;;;;;;;1999.90;999.90;;;27.30;99.90;;;;;;5187839;28;20037;-74
2022/09/01 09:57:40;;;;;;;1999.90;999.90;;;27.90;99.90;;;;;;5285343;27;20421;-75
2022/09/01 10:00:24;;;;;;;1999.90;999.90;;;28.00;99.90;;;;;;5285843;28;20020;-75
2022/09/01 10:03:02;;;;;;;1999.90;999.90;;;27.50;99.90;;;;;;5285899;28;20165;-76
2022/09/01 10:05:47;;;;;;;1999.90;999.90;;;27.10;99.90;;;;;;5267480;28;20032;-76
2022/09/01 10:08:29;;;;;;;1999.90;999.90;;;26.70;99.90;;;;;;5285532;28;20016;-76
2022/09/01 10:11:00;;;;;;;1999.90;999.90;;;27.00;99.90;;;;;;5285292;28;20066;-78
2022/09/01 10:13:34;;;;;;;1504.05;751.38;;;27.20;99.90;;;;;;5266962;28;20058;-81
2022/09/01 10:16:22;;;;;;;1999.90;999.90;;;27.50;99.90;;;;;;5281425;28;20069;-80
2022/09/01 10:18:59;;;;;;;1999.90;999.90;;;27.90;99.90;;;;;;5264389;28;20073;-82
2022/09/01 10:21:37;;;;;;;1999.90;999.90;;;28.20;99.90;;;;;;5246381;28;20032;-80
2022/09/01 10:24:18;;;;;;;1999.90;999.90;;;27.00;99.90;;;;;;5264269;28;20035;-78
2022/09/01 10:26:55;;;;;;;1999.90;999.90;;;26.70;99.90;;;;;;5264236;28;20135;-78
2022/09/01 10:29:34;;;;;;;1999.90;999.90;;;26.10;99.90;;;;;;5264313;28;20028;-75
2022/09/01 10:32:09;;;;;;;1999.90;999.90;;;25.60;99.90;;;;;;5264242;28;20651;-79
2022/09/01 10:34:41;;;;;;;1999.90;999.90;;;26.00;99.90;;;;;;5264323;28;20020;-75
2022/09/01 10:37:13;;;;;;;1115.88;526.47;;;26.50;99.90;;;;;;5263700;28;20111;-77
2022/09/01 10:40:12;;;;;;;1999.90;999.90;;;26.50;99.90;;;;;;5263916;28;20028;-74
2022/09/01 10:42:45;;;;;;;1999.90;999.90;;;27.20;99.90;;;;;;5264067;28;20038;-78
2022/09/01 10:45:29;;;;;;;1115.93;527.83;;;27.10;99.90;;;;;;5263973;28;20090;-78
2022/09/01 10:48:24;;;;;;;1999.90;999.90;;;26.90;99.90;;;;;;5263376;28;20078;-75
2022/09/01 10:51:33;;;;;;;1999.90;999.90;;;27.30;99.90;;;;;;5264045;28;20025;-73
2022/09/01 10:54:05;;;;;;;1999.90;999.90;;;27.70;99.90;;;;;;5263524;28;20483;-78
2022/09/01 10:56:52;;;;;;;1999.90;999.90;;;27.90;99.90;;;;;;5242661;28;20080;-79
2022/09/01 10:59:28;;;;;;;1999.90;999.90;;;28.20;99.90;;;;;;5249664;28;20031;-76
2022/09/01 11:02:12;;;;;;;1999.90;999.90;;;28.20;99.90;;;;;;5231739;28;20073;-77
2022/09/01 11:04:45;;;;;;;1999.90;999.90;;;28.50;99.90;;;;;;5231606;28;20024;-77
2022/09/01 11:07:22;;;;;;;1999.90;999.90;;;28.70;99.90;;;;;;5249488;28;20852;-77
2022/09/01 11:10:14;;;;;;;1999.90;999.90;;;28.50;99.90;;;;;;5249643;28;20047;-77
2022/09/01 11:13:03;;;;;;;1999.90;999.90;;;28.40;99.90;;;;;;5249508;28;20028;-75
2022/09/01 11:15:41;;;;;;;1999.90;999.90;;;27.90;99.90;;;;;;5249343;28;20029;-72
2022/09/01 11:18:25;;;;;;;1999.90;999.90;;;27.80;99.90;;;;;;5249304;28;20484;-75
2022/09/01 11:21:25;;;;;;;1999.90;999.90;;;27.80;99.90;;;;;;5249215;28;20025;-76
2022/09/01 11:24:41;;;;;;;1999.90;999.90;;;27.60;99.90;;;;;;5249325;28;20025;-73
2022/09/01 11:27:47;;;;;;;1999.90;999.90;;;27.20;99.90;;;;;;5186023;28;20393;-73
2022/09/01 11:30:21;;;;;;;1999.90;999.90;;;28.10;99.90;;;;;;5249112;28;20028;-75
2022/09/01 11:33:02;;;;;;;1999.90;999.90;;;27.70;99.90;;;;;;5249577;28;20028;-73
2022/09/01 11:35:33;;;;;;;1999.90;999.90;;;27.80;99.90;;;;;;5249298;28;20081;-75
2022/09/01 11:38:06;;;;;;;1999.90;999.90;;;27.50;99.90;;;;;;5249093;28;20460;-73
2022/09/01 11:40:37;;;;;;;1999.90;999.90;;;27.50;99.90;;;;;;5249266;28;20025;-72
2022/09/01 11:43:15;;;;;;;1999.90;999.90;;;28.00;99.90;;;;;;5248887;28;20029;-72
2022/09/01 11:46:11;;;;;;;1999.90;999.90;;;28.10;99.90;;;;;;5248695;28;20032;-72
2022/09/01 11:48:47;;;;;;;1999.90;999.90;;;27.40;99.90;;;;;;5248785;28;20037;-72
2022/09/01 11:51:20;;;;;;;1999.90;999.90;;;27.00;99.90;;;;;;5248934;28;20368;-79
2022/09/01 11:53:57;;;;;;;1999.90;999.90;;;27.20;99.90;;;;;;5248651;28;20039;-78
2022/09/01 11:56:28;;;;;;;1999.90;999.90;;;28.00;99.90;;;;;;5248367;28;20053;-78
2022/09/01 11:58:59;;;;;;;1999.90;999.90;;;28.10;99.90;;;;;;5248620;28;20482;-74
2022/09/01 12:01:33;;;;;;;1999.90;999.90;;;28.30;99.90;;;;;;5248702;28;20024;-77
2022/09/01 12:04:21;;;;;;;1999.90;999.90;;;28.50;99.90;;;;;;5248203;28;20081;-76
2022/09/01 12:07:01;;;;;;;1999.90;999.90;;;28.10;99.90;;;;;;5248068;28;20123;-76
2022/09/01 12:09:36;;;;;;;1999.90;999.90;;;27.80;99.90;;;;;;5247459;28;20024;-75
2022/09/01 12:12:30;;;;;;;1999.90;999.90;;;27.30;99.90;;;;;;5247954;28;20102;-76
2022/09/01 12:15:23;;;;;;;1999.90;999.90;;;28.00;99.90;;;;;;5246878;28;20028;-72
2022/09/01 12:18:19;;;;;;;1999.90;999.90;;;28.20;99.90;;;;;;5248596;28;20472;-77
2022/09/01 12:20:57;;;;;;;1522.05;754.15;;;28.50;99.90;;;;;;5248280;28;20091;-75
2022/09/01 12:23:34;;;;;;;1999.90;999.90;;;28.70;99.90;;;;;;5248408;28;20480;-77
2022/09/01 12:26:10;;;;;;;1999.90;999.90;;;28.70;99.90;;;;;;5247991;28;20047;-72
2022/09/01 12:28:42;;;;;;;1999.90;999.90;;;29.30;99.90;;;;;;5248047;28;20017;-78
2022/09/01 12:31:17;;;;;;;1999.90;999.90;;;28.60;99.90;;;;;;5246098;28;20035;-72
2022/09/01 12:33:50;;;;;;;1999.90;999.90;;;28.70;99.90;;;;;;5247986;28;20020;-75
2022/09/01 12:36:34;;;;;;;1999.90;999.90;;;28.50;99.90;;;;;;5248079;28;20016;-77
2022/09/01 12:39:20;;;;;;;1999.90;999.90;;;28.50;99.90;;;;;;5247713;28;20028;-74
2022/09/01 12:42:09;;;;;;;1999.90;999.90;;;27.80;99.90;;;;;;5247819;28;20385;-73
2022/09/01 12:44:43;;;;;;;1999.90;999.90;;;27.40;99.90;;;;;;5247794;28;20102;-71
2022/09/01 12:47:51;;;;;;;1999.90;999.90;;;27.20;99.90;;;;;;5247569;28;20043;-73
2022/09/01 12:50:25;;;;;;;1999.90;999.90;;;27.10;99.90;;;;;;5206066;28;20033;-75
2022/09/01 12:52:59;;;;;;;1999.90;999.90;;;27.10;99.90;;;;;;5247655;28;20036;-75
2022/09/01 12:55:36;;;;;;;1999.90;999.90;;;27.00;99.90;;;;;;5247064;28;20504;-74
2022/09/01 12:58:09;;;;;;;1999.90;999.90;;;27.30;99.90;;;;;;5246914;28;20116;-76
2022/09/01 13:00:59;;;;;;;1999.90;999.90;;;27.40;99.90;;;;;;5247613;28;20055;-74
2022/09/01 13:03:34;;;;;;;1999.90;999.90;;;27.50;99.90;;;;;;5247517;28;20391;-76